sensor_id;sensor_type;location;lat;lon;timestamp;P1;durP1;ratioP1;P2;durP2;ratioP2
14094;SDS011;18096;48.142;16.290;2023-08-17T00:00:07;6.70;;;5.60;;
14094;SDS011;18096;48.142;16.290;2023-08-17T00:02:42;7.63;;;5.50;;
14094;SDS011;18096;48.142;16.290;2023-08-17T00:05:08;6.40;;;5.30;;
14094;SDS011;18096;48.142;16.290;2023-08-17T00:07:34;5.40;;;5.00;;
14094;SDS011;18096;48.142;16.290;2023-08-17T00:10:00;5.45;;;5.05;;
14094;SDS011;18096;48.142;16.290;2023-08-17T00:12:26;6.20;;;5.70;;
14094;SDS011;18096;48.142;16.290;2023-08-17T00:14:52;10.30;;;5.80;;
14094;SDS011;18096;48.142;16.290;2023-08-17T00:17:18;6.90;;;5.65;;
14094;SDS011;18096;48.142;16.290;2023-08-17T00:19:44;10.75;;;5.90;;
14094;SDS011;18096;48.142;16.290;2023-08-17T00:22:10;6.30;;;5.70;;
14094;SDS011;18096;48.142;16.290;2023-08-17T00:24:36;5.70;;;5.30;;
14094;SDS011;18096;48.142;16.290;2023-08-17T00:27:01;7.00;;;6.35;;
14094;SDS011;18096;48.142;16.290;2023-08-17T00:29:28;7.45;;;5.90;;
14094;SDS011;18096;48.142;16.290;2023-08-17T00:31:54;7.40;;;6.70;;
14094;SDS011;18096;48.142;16.290;2023-08-17T00:34:20;6.53;;;5.85;;
14094;SDS011;18096;48.142;16.290;2023-08-17T00:36:46;6.50;;;5.90;;
14094;SDS011;18096;48.142;16.290;2023-08-17T00:39:11;6.25;;;5.75;;
14094;SDS011;18096;48.142;16.290;2023-08-17T00:41:37;5.90;;;5.40;;
14094;SDS011;18096;48.142;16.290;2023-08-17T00:44:03;5.80;;;5.20;;
14094;SDS011;18096;48.142;16.290;2023-08-17T00:46:29;6.75;;;5.20;;
14094;SDS011;18096;48.142;16.290;2023-08-17T00:48:55;9.93;;;5.40;;
14094;SDS011;18096;48.142;16.290;2023-08-17T00:51:23;6.55;;;5.80;;
14094;SDS011;18096;48.142;16.290;2023-08-17T00:53:52;6.50;;;5.90;;
14094;SDS011;18096;48.142;16.290;2023-08-17T00:56:22;6.53;;;5.93;;
14094;SDS011;18096;48.142;16.290;2023-08-17T00:58:48;6.40;;;5.80;;
14094;SDS011;18096;48.142;16.290;2023-08-17T01:01:14;6.30;;;5.70;;
14094;SDS011;18096;48.142;16.290;2023-08-17T01:03:40;6.03;;;5.43;;
14094;SDS011;18096;48.142;16.290;2023-08-17T01:06:06;5.80;;;4.97;;
14094;SDS011;18096;48.142;16.290;2023-08-17T01:08:32;5.78;;;5.38;;
14094;SDS011;18096;48.142;16.290;2023-08-17T01:11:07;6.03;;;5.53;;
14094;SDS011;18096;48.142;16.290;2023-08-17T01:13:51;8.57;;;5.60;;
14094;SDS011;18096;48.142;16.290;2023-08-17T01:16:39;6.00;;;5.40;;
14094;SDS011;18096;48.142;16.290;2023-08-17T01:19:08;6.00;;;5.50;;
14094;SDS011;18096;48.142;16.290;2023-08-17T01:21:41;6.28;;;5.68;;
14094;SDS011;18096;48.142;16.290;2023-08-17T01:24:08;6.00;;;5.40;;
14094;SDS011;18096;48.142;16.290;2023-08-17T01:26:33;6.60;;;6.00;;
14094;SDS011;18096;48.142;16.290;2023-08-17T01:28:59;7.20;;;6.20;;
14094;SDS011;18096;48.142;16.290;2023-08-17T01:31:28;6.60;;;6.00;;
14094;SDS011;18096;48.142;16.290;2023-08-17T01:34:03;6.38;;;5.75;;
14094;SDS011;18096;48.142;16.290;2023-08-17T01:36:36;6.93;;;6.10;;
14094;SDS011;18096;48.142;16.290;2023-08-17T01:39:04;8.05;;;6.03;;
14094;SDS011;18096;48.142;16.290;2023-08-17T01:41:32;6.07;;;5.65;;
14094;SDS011;18096;48.142;16.290;2023-08-17T01:43:58;7.90;;;6.60;;
14094;SDS011;18096;48.142;16.290;2023-08-17T01:46:30;9.23;;;6.30;;
14094;SDS011;18096;48.142;16.290;2023-08-17T01:48:58;6.13;;;5.60;;
14094;SDS011;18096;48.142;16.290;2023-08-17T01:51:23;8.48;;;5.50;;
14094;SDS011;18096;48.142;16.290;2023-08-17T01:53:50;7.13;;;5.78;;
14094;SDS011;18096;48.142;16.290;2023-08-17T01:56:16;6.38;;;5.80;;
14094;SDS011;18096;48.142;16.290;2023-08-17T01:58:42;5.82;;;5.32;;
14094;SDS011;18096;48.142;16.290;2023-08-17T02:01:08;7.13;;;5.80;;
14094;SDS011;18096;48.142;16.290;2023-08-17T02:03:33;6.63;;;5.70;;
14094;SDS011;18096;48.142;16.290;2023-08-17T02:05:59;7.27;;;6.17;;
14094;SDS011;18096;48.142;16.290;2023-08-17T02:08:25;7.72;;;6.18;;
14094;SDS011;18096;48.142;16.290;2023-08-17T02:10:51;6.40;;;5.60;;
14094;SDS011;18096;48.142;16.290;2023-08-17T02:13:17;7.10;;;6.50;;
14094;SDS011;18096;48.142;16.290;2023-08-17T02:15:43;6.72;;;6.07;;
14094;SDS011;18096;48.142;16.290;2023-08-17T02:18:09;7.00;;;6.40;;
14094;SDS011;18096;48.142;16.290;2023-08-17T02:20:35;7.03;;;6.40;;
14094;SDS011;18096;48.142;16.290;2023-08-17T02:23:01;10.43;;;7.10;;
14094;SDS011;18096;48.142;16.290;2023-08-17T02:25:26;8.00;;;6.55;;
14094;SDS011;18096;48.142;16.290;2023-08-17T02:27:59;7.35;;;6.15;;
14094;SDS011;18096;48.142;16.290;2023-08-17T02:30:25;9.10;;;6.50;;
14094;SDS011;18096;48.142;16.290;2023-08-17T02:32:50;6.60;;;5.90;;
14094;SDS011;18096;48.142;16.290;2023-08-17T02:35:16;6.82;;;6.00;;
14094;SDS011;18096;48.142;16.290;2023-08-17T02:37:42;9.20;;;6.60;;
14094;SDS011;18096;48.142;16.290;2023-08-17T02:40:07;7.57;;;5.85;;
14094;SDS011;18096;48.142;16.290;2023-08-17T02:42:33;8.37;;;5.70;;
14094;SDS011;18096;48.142;16.290;2023-08-17T02:44:59;7.43;;;5.95;;
14094;SDS011;18096;48.142;16.290;2023-08-17T02:47:24;7.70;;;6.90;;
14094;SDS011;18096;48.142;16.290;2023-08-17T02:49:50;8.35;;;6.60;;
14094;SDS011;18096;48.142;16.290;2023-08-17T02:52:16;7.83;;;6.70;;
14094;SDS011;18096;48.142;16.290;2023-08-17T02:54:41;7.13;;;6.30;;
14094;SDS011;18096;48.142;16.290;2023-08-17T02:57:07;7.73;;;6.90;;
14094;SDS011;18096;48.142;16.290;2023-08-17T02:59:33;7.50;;;6.60;;
14094;SDS011;18096;48.142;16.290;2023-08-17T03:01:59;12.17;;;7.10;;
14094;SDS011;18096;48.142;16.290;2023-08-17T03:04:24;7.32;;;6.63;;
14094;SDS011;18096;48.142;16.290;2023-08-17T03:06:50;6.77;;;6.17;;
14094;SDS011;18096;48.142;16.290;2023-08-17T03:09:15;7.38;;;6.50;;
14094;SDS011;18096;48.142;16.290;2023-08-17T03:11:41;6.83;;;6.23;;
14094;SDS011;18096;48.142;16.290;2023-08-17T03:14:07;7.80;;;6.20;;
14094;SDS011;18096;48.142;16.290;2023-08-17T03:16:32;7.10;;;6.40;;
14094;SDS011;18096;48.142;16.290;2023-08-17T03:18:58;9.40;;;6.40;;
14094;SDS011;18096;48.142;16.290;2023-08-17T03:21:23;8.40;;;6.30;;
14094;SDS011;18096;48.142;16.290;2023-08-17T03:23:49;7.77;;;6.90;;
14094;SDS011;18096;48.142;16.290;2023-08-17T03:26:15;6.30;;;5.90;;
14094;SDS011;18096;48.142;16.290;2023-08-17T03:28:41;7.75;;;6.60;;
14094;SDS011;18096;48.142;16.290;2023-08-17T03:31:07;7.50;;;6.70;;
14094;SDS011;18096;48.142;16.290;2023-08-17T03:33:35;7.07;;;6.50;;
14094;SDS011;18096;48.142;16.290;2023-08-17T03:36:01;10.37;;;7.47;;
14094;SDS011;18096;48.142;16.290;2023-08-17T03:38:27;10.13;;;7.00;;
14094;SDS011;18096;48.142;16.290;2023-08-17T03:40:53;8.48;;;7.45;;
14094;SDS011;18096;48.142;16.290;2023-08-17T03:43:19;10.60;;;7.60;;
14094;SDS011;18096;48.142;16.290;2023-08-17T03:45:44;6.90;;;6.40;;
14094;SDS011;18096;48.142;16.290;2023-08-17T03:48:10;8.65;;;7.40;;
14094;SDS011;18096;48.142;16.290;2023-08-17T03:50:36;8.18;;;7.38;;
14094;SDS011;18096;48.142;16.290;2023-08-17T03:53:02;11.53;;;7.63;;
14094;SDS011;18096;48.142;16.290;2023-08-17T03:55:28;8.90;;;8.00;;
14094;SDS011;18096;48.142;16.290;2023-08-17T03:57:53;8.60;;;7.40;;
14094;SDS011;18096;48.142;16.290;2023-08-17T04:00:19;7.87;;;7.13;;
14094;SDS011;18096;48.142;16.290;2023-08-17T04:02:45;9.95;;;7.97;;
14094;SDS011;18096;48.142;16.290;2023-08-17T04:05:10;10.97;;;8.40;;
14094;SDS011;18096;48.142;16.290;2023-08-17T04:07:36;9.90;;;8.40;;
14094;SDS011;18096;48.142;16.290;2023-08-17T04:10:02;12.35;;;8.13;;
14094;SDS011;18096;48.142;16.290;2023-08-17T04:12:30;9.95;;;8.52;;
14094;SDS011;18096;48.142;16.290;2023-08-17T04:14:55;11.13;;;8.20;;
14094;SDS011;18096;48.142;16.290;2023-08-17T04:17:21;10.80;;;8.07;;
14094;SDS011;18096;48.142;16.290;2023-08-17T04:19:47;10.63;;;8.13;;
14094;SDS011;18096;48.142;16.290;2023-08-17T04:22:12;9.50;;;7.30;;
14094;SDS011;18096;48.142;16.290;2023-08-17T04:24:38;12.55;;;8.40;;
14094;SDS011;18096;48.142;16.290;2023-08-17T04:27:04;10.27;;;7.50;;
14094;SDS011;18096;48.142;16.290;2023-08-17T04:29:30;9.88;;;7.50;;
14094;SDS011;18096;48.142;16.290;2023-08-17T04:31:56;10.03;;;7.50;;
14094;SDS011;18096;48.142;16.290;2023-08-17T04:34:22;8.90;;;7.15;;
14094;SDS011;18096;48.142;16.290;2023-08-17T04:36:48;13.20;;;7.95;;
14094;SDS011;18096;48.142;16.290;2023-08-17T04:39:14;7.97;;;7.27;;
14094;SDS011;18096;48.142;16.290;2023-08-17T04:41:39;9.90;;;7.20;;
14094;SDS011;18096;48.142;16.290;2023-08-17T04:44:05;9.90;;;7.20;;
14094;SDS011;18096;48.142;16.290;2023-08-17T04:46:31;13.02;;;7.30;;
14094;SDS011;18096;48.142;16.290;2023-08-17T04:48:56;12.50;;;8.00;;
14094;SDS011;18096;48.142;16.290;2023-08-17T04:51:22;10.63;;;6.97;;
14094;SDS011;18096;48.142;16.290;2023-08-17T04:53:48;11.03;;;7.47;;
14094;SDS011;18096;48.142;16.290;2023-08-17T04:56:13;6.90;;;6.30;;
14094;SDS011;18096;48.142;16.290;2023-08-17T04:58:39;8.10;;;6.67;;
14094;SDS011;18096;48.142;16.290;2023-08-17T05:01:04;9.00;;;7.10;;
14094;SDS011;18096;48.142;16.290;2023-08-17T05:03:30;7.75;;;6.93;;
14094;SDS011;18096;48.142;16.290;2023-08-17T05:05:56;10.00;;;7.60;;
14094;SDS011;18096;48.142;16.290;2023-08-17T05:08:21;10.00;;;7.50;;
14094;SDS011;18096;48.142;16.290;2023-08-17T05:10:47;14.80;;;7.77;;
14094;SDS011;18096;48.142;16.290;2023-08-17T05:13:13;12.55;;;8.43;;
14094;SDS011;18096;48.142;16.290;2023-08-17T05:15:39;10.43;;;7.90;;
14094;SDS011;18096;48.142;16.290;2023-08-17T05:18:05;9.73;;;8.73;;
14094;SDS011;18096;48.142;16.290;2023-08-17T05:20:30;11.70;;;8.82;;
14094;SDS011;18096;48.142;16.290;2023-08-17T05:22:56;13.70;;;9.10;;
14094;SDS011;18096;48.142;16.290;2023-08-17T05:25:22;11.50;;;9.23;;
14094;SDS011;18096;48.142;16.290;2023-08-17T05:27:47;13.70;;;9.57;;
14094;SDS011;18096;48.142;16.290;2023-08-17T05:30:15;11.68;;;10.32;;
14094;SDS011;18096;48.142;16.290;2023-08-17T05:32:41;27.95;;;10.55;;
14094;SDS011;18096;48.142;16.290;2023-08-17T05:35:06;15.05;;;10.23;;
14094;SDS011;18096;48.142;16.290;2023-08-17T05:37:32;10.80;;;9.80;;
14094;SDS011;18096;48.142;16.290;2023-08-17T05:39:58;16.13;;;10.90;;
14094;SDS011;18096;48.142;16.290;2023-08-17T05:42:23;11.47;;;10.27;;
14094;SDS011;18096;48.142;16.290;2023-08-17T05:44:49;13.47;;;11.20;;
14094;SDS011;18096;48.142;16.290;2023-08-17T05:47:15;16.20;;;11.68;;
14094;SDS011;18096;48.142;16.290;2023-08-17T05:49:42;20.20;;;11.95;;
14094;SDS011;18096;48.142;16.290;2023-08-17T05:52:08;16.60;;;13.20;;
14094;SDS011;18096;48.142;16.290;2023-08-17T05:54:34;14.30;;;11.80;;
14094;SDS011;18096;48.142;16.290;2023-08-17T05:57:00;13.30;;;11.30;;
14094;SDS011;18096;48.142;16.290;2023-08-17T05:59:26;13.63;;;11.98;;
14094;SDS011;18096;48.142;16.290;2023-08-17T06:01:52;20.05;;;12.25;;
14094;SDS011;18096;48.142;16.290;2023-08-17T06:04:17;20.38;;;13.05;;
14094;SDS011;18096;48.142;16.290;2023-08-17T06:06:43;19.43;;;12.90;;
14094;SDS011;18096;48.142;16.290;2023-08-17T06:09:09;19.48;;;12.70;;
14094;SDS011;18096;48.142;16.290;2023-08-17T06:11:34;28.67;;;12.33;;
14094;SDS011;18096;48.142;16.290;2023-08-17T06:14:00;18.80;;;11.63;;
14094;SDS011;18096;48.142;16.290;2023-08-17T06:16:25;20.05;;;11.52;;
14094;SDS011;18096;48.142;16.290;2023-08-17T06:18:51;18.63;;;12.73;;
14094;SDS011;18096;48.142;16.290;2023-08-17T06:21:17;18.25;;;12.30;;
14094;SDS011;18096;48.142;16.290;2023-08-17T06:23:42;19.53;;;12.90;;
14094;SDS011;18096;48.142;16.290;2023-08-17T06:26:08;23.85;;;12.82;;
14094;SDS011;18096;48.142;16.290;2023-08-17T06:28:34;17.30;;;12.40;;
14094;SDS011;18096;48.142;16.290;2023-08-17T06:30:59;18.60;;;12.33;;
14094;SDS011;18096;48.142;16.290;2023-08-17T06:33:25;16.80;;;11.20;;
14094;SDS011;18096;48.142;16.290;2023-08-17T06:35:50;16.73;;;10.60;;
14094;SDS011;18096;48.142;16.290;2023-08-17T06:38:16;13.88;;;9.43;;
14094;SDS011;18096;48.142;16.290;2023-08-17T06:40:42;13.82;;;10.40;;
14094;SDS011;18096;48.142;16.290;2023-08-17T06:43:10;13.98;;;10.70;;
14094;SDS011;18096;48.142;16.290;2023-08-17T06:45:35;16.00;;;10.50;;
14094;SDS011;18096;48.142;16.290;2023-08-17T06:48:01;30.80;;;11.43;;
14094;SDS011;18096;48.142;16.290;2023-08-17T06:50:27;18.40;;;10.30;;
14094;SDS011;18096;48.142;16.290;2023-08-17T06:52:53;11.50;;;9.73;;
14094;SDS011;18096;48.142;16.290;2023-08-17T06:55:19;9.63;;;8.50;;
14094;SDS011;18096;48.142;16.290;2023-08-17T06:57:45;14.60;;;9.80;;
14094;SDS011;18096;48.142;16.290;2023-08-17T07:00:12;11.52;;;9.50;;
14094;SDS011;18096;48.142;16.290;2023-08-17T07:02:38;11.10;;;9.20;;
14094;SDS011;18096;48.142;16.290;2023-08-17T07:05:04;15.00;;;9.67;;
14094;SDS011;18096;48.142;16.290;2023-08-17T07:07:30;13.13;;;9.10;;
14094;SDS011;18096;48.142;16.290;2023-08-17T07:09:58;11.95;;;9.25;;
14094;SDS011;18096;48.142;16.290;2023-08-17T07:12:24;14.90;;;9.53;;
14094;SDS011;18096;48.142;16.290;2023-08-17T07:14:50;9.90;;;8.90;;
14094;SDS011;18096;48.142;16.290;2023-08-17T07:17:16;12.63;;;7.50;;
14094;SDS011;18096;48.142;16.290;2023-08-17T07:19:41;10.85;;;7.18;;
14094;SDS011;18096;48.142;16.290;2023-08-17T07:22:07;7.70;;;7.00;;
14094;SDS011;18096;48.142;16.290;2023-08-17T07:24:33;10.57;;;7.40;;
14094;SDS011;18096;48.142;16.290;2023-08-17T07:26:59;8.17;;;7.30;;
14094;SDS011;18096;48.142;16.290;2023-08-17T07:29:24;8.18;;;7.38;;
14094;SDS011;18096;48.142;16.290;2023-08-17T07:31:50;13.80;;;7.73;;
14094;SDS011;18096;48.142;16.290;2023-08-17T07:34:16;11.77;;;7.78;;
14094;SDS011;18096;48.142;16.290;2023-08-17T07:36:41;10.00;;;7.50;;
14094;SDS011;18096;48.142;16.290;2023-08-17T07:39:07;13.77;;;7.23;;
14094;SDS011;18096;48.142;16.290;2023-08-17T07:41:32;14.95;;;7.85;;
14094;SDS011;18096;48.142;16.290;2023-08-17T07:43:58;13.40;;;9.10;;
14094;SDS011;18096;48.142;16.290;2023-08-17T07:46:24;11.40;;;9.13;;
14094;SDS011;18096;48.142;16.290;2023-08-17T07:48:49;9.77;;;7.60;;
14094;SDS011;18096;48.142;16.290;2023-08-17T07:51:15;9.80;;;8.70;;
14094;SDS011;18096;48.142;16.290;2023-08-17T07:53:41;13.38;;;7.90;;
14094;SDS011;18096;48.142;16.290;2023-08-17T07:56:06;11.63;;;7.67;;
14094;SDS011;18096;48.142;16.290;2023-08-17T07:58:32;14.48;;;10.27;;
14094;SDS011;18096;48.142;16.290;2023-08-17T08:00:58;10.97;;;8.60;;
14094;SDS011;18096;48.142;16.290;2023-08-17T08:03:23;15.87;;;9.00;;
14094;SDS011;18096;48.142;16.290;2023-08-17T08:05:49;8.65;;;7.07;;
14094;SDS011;18096;48.142;16.290;2023-08-17T08:08:15;12.13;;;7.40;;
14094;SDS011;18096;48.142;16.290;2023-08-17T08:10:42;13.67;;;7.20;;
14094;SDS011;18096;48.142;16.290;2023-08-17T08:13:09;9.85;;;7.60;;
14094;SDS011;18096;48.142;16.290;2023-08-17T08:15:34;8.87;;;7.67;;
14094;SDS011;18096;48.142;16.290;2023-08-17T08:18:00;10.82;;;7.57;;
14094;SDS011;18096;48.142;16.290;2023-08-17T08:20:26;13.15;;;7.35;;
14094;SDS011;18096;48.142;16.290;2023-08-17T08:22:51;13.10;;;7.60;;
14094;SDS011;18096;48.142;16.290;2023-08-17T08:25:17;6.90;;;6.30;;
14094;SDS011;18096;48.142;16.290;2023-08-17T08:27:43;8.13;;;6.60;;
14094;SDS011;18096;48.142;16.290;2023-08-17T08:30:08;13.85;;;6.60;;
14094;SDS011;18096;48.142;16.290;2023-08-17T08:32:34;7.55;;;6.50;;
14094;SDS011;18096;48.142;16.290;2023-08-17T08:35:00;7.60;;;6.20;;
14094;SDS011;18096;48.142;16.290;2023-08-17T08:37:27;6.90;;;6.00;;
14094;SDS011;18096;48.142;16.290;2023-08-17T08:39:53;11.03;;;6.40;;
14094;SDS011;18096;48.142;16.290;2023-08-17T08:42:20;8.07;;;6.10;;
14094;SDS011;18096;48.142;16.290;2023-08-17T08:44:47;6.50;;;5.90;;
14094;SDS011;18096;48.142;16.290;2023-08-17T08:47:14;7.72;;;6.40;;
14094;SDS011;18096;48.142;16.290;2023-08-17T08:50:01;7.20;;;6.50;;
14094;SDS011;18096;48.142;16.290;2023-08-17T08:52:33;11.75;;;6.70;;
14094;SDS011;18096;48.142;16.290;2023-08-17T08:55:03;6.77;;;6.23;;
14094;SDS011;18096;48.142;16.290;2023-08-17T08:57:35;7.00;;;6.30;;
14094;SDS011;18096;48.142;16.290;2023-08-17T09:00:02;12.80;;;6.60;;
14094;SDS011;18096;48.142;16.290;2023-08-17T09:02:28;7.95;;;7.00;;
14094;SDS011;18096;48.142;16.290;2023-08-17T09:04:55;7.50;;;6.72;;
14094;SDS011;18096;48.142;16.290;2023-08-17T09:07:22;8.88;;;6.80;;
14094;SDS011;18096;48.142;16.290;2023-08-17T09:09:48;8.15;;;7.05;;
14094;SDS011;18096;48.142;16.290;2023-08-17T09:12:14;15.40;;;6.78;;
14094;SDS011;18096;48.142;16.290;2023-08-17T09:14:40;8.52;;;6.07;;
14094;SDS011;18096;48.142;16.290;2023-08-17T09:17:06;10.23;;;6.97;;
14094;SDS011;18096;48.142;16.290;2023-08-17T09:19:32;10.30;;;7.00;;
14094;SDS011;18096;48.142;16.290;2023-08-17T09:22:01;7.50;;;6.80;;
14094;SDS011;18096;48.142;16.290;2023-08-17T09:24:36;13.80;;;8.88;;
14094;SDS011;18096;48.142;16.290;2023-08-17T09:27:05;8.33;;;7.53;;
14094;SDS011;18096;48.142;16.290;2023-08-17T09:29:36;12.80;;;7.25;;
14094;SDS011;18096;48.142;16.290;2023-08-17T09:32:06;7.28;;;6.50;;
14094;SDS011;18096;48.142;16.290;2023-08-17T09:34:32;7.28;;;6.30;;
14094;SDS011;18096;48.142;16.290;2023-08-17T09:37:04;9.10;;;7.90;;
14094;SDS011;18096;48.142;16.290;2023-08-17T09:39:30;7.90;;;6.72;;
14094;SDS011;18096;48.142;16.290;2023-08-17T09:41:56;9.20;;;6.93;;
14094;SDS011;18096;48.142;16.290;2023-08-17T09:44:22;10.50;;;6.57;;
14094;SDS011;18096;48.142;16.290;2023-08-17T09:46:48;7.57;;;6.10;;
14094;SDS011;18096;48.142;16.290;2023-08-17T09:49:13;6.15;;;5.63;;
14094;SDS011;18096;48.142;16.290;2023-08-17T09:51:42;8.20;;;5.30;;
14094;SDS011;18096;48.142;16.290;2023-08-17T09:54:16;8.45;;;5.85;;
14094;SDS011;18096;48.142;16.290;2023-08-17T09:56:48;10.48;;;5.78;;
14094;SDS011;18096;48.142;16.290;2023-08-17T09:59:17;6.30;;;5.80;;
14094;SDS011;18096;48.142;16.290;2023-08-17T10:01:43;6.65;;;5.80;;
14094;SDS011;18096;48.142;16.290;2023-08-17T10:04:11;6.10;;;5.50;;
14094;SDS011;18096;48.142;16.290;2023-08-17T10:06:39;10.40;;;6.03;;
14094;SDS011;18096;48.142;16.290;2023-08-17T10:09:07;16.02;;;5.63;;
14094;SDS011;18096;48.142;16.290;2023-08-17T10:11:37;6.60;;;5.63;;
14094;SDS011;18096;48.142;16.290;2023-08-17T10:14:06;8.45;;;5.00;;
14094;SDS011;18096;48.142;16.290;2023-08-17T10:22:12;6.68;;;5.00;;
14094;SDS011;18096;48.142;16.290;2023-08-17T10:24:59;5.88;;;4.90;;
14094;SDS011;18096;48.142;16.290;2023-08-17T10:27:26;5.15;;;4.65;;
14094;SDS011;18096;48.142;16.290;2023-08-17T10:29:52;6.65;;;5.10;;
14094;SDS011;18096;48.142;16.290;2023-08-17T10:32:20;5.80;;;5.20;;
14094;SDS011;18096;48.142;16.290;2023-08-17T10:34:48;5.63;;;4.82;;
14094;SDS011;18096;48.142;16.290;2023-08-17T10:37:17;8.18;;;5.38;;
14094;SDS011;18096;48.142;16.290;2023-08-17T10:39:44;6.80;;;5.17;;
14094;SDS011;18096;48.142;16.290;2023-08-17T10:42:11;5.93;;;4.90;;
14094;SDS011;18096;48.142;16.290;2023-08-17T10:44:38;3.60;;;3.30;;
14094;SDS011;18096;48.142;16.290;2023-08-17T10:49:52;12.50;;;4.80;;
14094;SDS011;18096;48.142;16.290;2023-08-17T10:54:59;4.13;;;3.73;;
14094;SDS011;18096;48.142;16.290;2023-08-17T10:57:39;4.00;;;3.77;;
14094;SDS011;18096;48.142;16.290;2023-08-17T11:02:52;3.10;;;2.90;;
14094;SDS011;18096;48.142;16.290;2023-08-17T11:05:38;6.30;;;3.87;;
14094;SDS011;18096;48.142;16.290;2023-08-17T11:08:07;3.77;;;3.37;;
14094;SDS011;18096;48.142;16.290;2023-08-17T11:10:34;4.33;;;4.03;;
14094;SDS011;18096;48.142;16.290;2023-08-17T11:13:00;4.63;;;4.33;;
14094;SDS011;18096;48.142;16.290;2023-08-17T11:15:36;6.43;;;4.10;;
14094;SDS011;18096;48.142;16.290;2023-08-17T11:18:04;23.90;;;4.50;;
14094;SDS011;18096;48.142;16.290;2023-08-17T11:20:34;10.40;;;4.30;;
14094;SDS011;18096;48.142;16.290;2023-08-17T11:23:00;3.90;;;3.60;;
14094;SDS011;18096;48.142;16.290;2023-08-17T11:25:27;7.50;;;4.00;;
14094;SDS011;18096;48.142;16.290;2023-08-17T11:27:53;7.13;;;4.00;;
14094;SDS011;18096;48.142;16.290;2023-08-17T11:30:22;4.43;;;4.07;;
14094;SDS011;18096;48.142;16.290;2023-08-17T11:32:52;6.13;;;3.83;;
14094;SDS011;18096;48.142;16.290;2023-08-17T11:35:19;4.10;;;3.80;;
14094;SDS011;18096;48.142;16.290;2023-08-17T11:37:45;3.27;;;3.07;;
14094;SDS011;18096;48.142;16.290;2023-08-17T11:40:11;4.97;;;4.27;;
14094;SDS011;18096;48.142;16.290;2023-08-17T11:42:37;12.27;;;4.00;;
14094;SDS011;18096;48.142;16.290;2023-08-17T11:45:03;4.13;;;3.73;;
14094;SDS011;18096;48.142;16.290;2023-08-17T11:47:30;4.43;;;3.80;;
14094;SDS011;18096;48.142;16.290;2023-08-17T11:50:00;5.93;;;4.00;;
14094;SDS011;18096;48.142;16.290;2023-08-17T11:52:27;5.93;;;3.90;;
14094;SDS011;18096;48.142;16.290;2023-08-17T11:54:56;4.50;;;4.10;;
14094;SDS011;18096;48.142;16.290;2023-08-17T11:57:22;11.23;;;4.43;;
14094;SDS011;18096;48.142;16.290;2023-08-17T11:59:48;6.30;;;4.23;;
14094;SDS011;18096;48.142;16.290;2023-08-17T12:02:14;4.80;;;4.30;;
14094;SDS011;18096;48.142;16.290;2023-08-17T12:04:39;5.03;;;4.63;;
14094;SDS011;18096;48.142;16.290;2023-08-17T12:07:05;3.97;;;3.57;;
14094;SDS011;18096;48.142;16.290;2023-08-17T12:09:34;3.87;;;3.57;;
14094;SDS011;18096;48.142;16.290;2023-08-17T12:12:00;19.13;;;4.87;;
14094;SDS011;18096;48.142;16.290;2023-08-17T12:14:28;4.63;;;3.83;;
14094;SDS011;18096;48.142;16.290;2023-08-17T12:16:54;5.63;;;3.80;;
14094;SDS011;18096;48.142;16.290;2023-08-17T12:19:20;4.60;;;3.43;;
14094;SDS011;18096;48.142;16.290;2023-08-17T12:21:48;5.33;;;4.20;;
14094;SDS011;18096;48.142;16.290;2023-08-17T12:24:13;4.20;;;3.40;;
14094;SDS011;18096;48.142;16.290;2023-08-17T12:26:41;4.00;;;3.70;;
14094;SDS011;18096;48.142;16.290;2023-08-17T12:29:08;5.83;;;3.70;;
14094;SDS011;18096;48.142;16.290;2023-08-17T12:31:34;6.90;;;4.60;;
14094;SDS011;18096;48.142;16.290;2023-08-17T12:34:00;4.73;;;3.73;;
14094;SDS011;18096;48.142;16.290;2023-08-17T12:36:26;4.40;;;4.00;;
14094;SDS011;18096;48.142;16.290;2023-08-17T12:38:51;30.30;;;5.80;;
14094;SDS011;18096;48.142;16.290;2023-08-17T12:41:17;7.90;;;4.10;;
14094;SDS011;18096;48.142;16.290;2023-08-17T12:43:43;4.33;;;3.10;;
14094;SDS011;18096;48.142;16.290;2023-08-17T12:46:09;3.70;;;3.43;;
14094;SDS011;18096;48.142;16.290;2023-08-17T12:48:35;11.50;;;4.03;;
14094;SDS011;18096;48.142;16.290;2023-08-17T12:51:01;3.23;;;3.10;;
14094;SDS011;18096;48.142;16.290;2023-08-17T12:53:27;3.80;;;3.50;;
14094;SDS011;18096;48.142;16.290;2023-08-17T12:55:53;3.50;;;3.30;;
14094;SDS011;18096;48.142;16.290;2023-08-17T12:58:18;3.30;;;3.00;;
14094;SDS011;18096;48.142;16.290;2023-08-17T13:00:44;7.70;;;3.60;;
14094;SDS011;18096;48.142;16.290;2023-08-17T13:03:10;3.83;;;3.53;;
14094;SDS011;18096;48.142;16.290;2023-08-17T13:05:35;7.97;;;3.87;;
14094;SDS011;18096;48.142;16.290;2023-08-17T13:08:01;3.90;;;3.50;;
14094;SDS011;18096;48.142;16.290;2023-08-17T13:10:27;9.03;;;3.50;;
14094;SDS011;18096;48.142;16.290;2023-08-17T13:12:53;3.47;;;3.17;;
14094;SDS011;18096;48.142;16.290;2023-08-17T13:15:21;6.60;;;3.03;;
14094;SDS011;18096;48.142;16.290;2023-08-17T13:17:47;17.10;;;3.50;;
14094;SDS011;18096;48.142;16.290;2023-08-17T13:20:13;5.30;;;3.73;;
14094;SDS011;18096;48.142;16.290;2023-08-17T13:22:38;3.20;;;2.97;;
14094;SDS011;18096;48.142;16.290;2023-08-17T13:25:04;9.60;;;3.53;;
14094;SDS011;18096;48.142;16.290;2023-08-17T13:27:30;3.67;;;3.00;;
14094;SDS011;18096;48.142;16.290;2023-08-17T13:29:56;3.77;;;3.47;;
14094;SDS011;18096;48.142;16.290;2023-08-17T13:32:23;3.93;;;3.17;;
14094;SDS011;18096;48.142;16.290;2023-08-17T13:34:50;3.60;;;3.33;;
14094;SDS011;18096;48.142;16.290;2023-08-17T13:37:15;3.27;;;2.97;;
14094;SDS011;18096;48.142;16.290;2023-08-17T13:39:41;3.07;;;2.77;;
14094;SDS011;18096;48.142;16.290;2023-08-17T13:42:07;3.40;;;2.80;;
14094;SDS011;18096;48.142;16.290;2023-08-17T13:44:33;13.17;;;3.47;;
14094;SDS011;18096;48.142;16.290;2023-08-17T13:46:58;4.87;;;3.20;;
14094;SDS011;18096;48.142;16.290;2023-08-17T13:49:24;3.43;;;3.13;;
14094;SDS011;18096;48.142;16.290;2023-08-17T13:51:50;6.10;;;3.20;;
14094;SDS011;18096;48.142;16.290;2023-08-17T13:54:15;4.37;;;3.27;;
14094;SDS011;18096;48.142;16.290;2023-08-17T13:56:41;5.60;;;3.83;;
14094;SDS011;18096;48.142;16.290;2023-08-17T13:59:06;8.90;;;3.83;;
14094;SDS011;18096;48.142;16.290;2023-08-17T14:01:32;4.03;;;3.00;;
14094;SDS011;18096;48.142;16.290;2023-08-17T14:03:58;5.30;;;4.80;;
14094;SDS011;18096;48.142;16.290;2023-08-17T14:06:24;4.80;;;4.40;;
14094;SDS011;18096;48.142;16.290;2023-08-17T14:08:49;6.00;;;4.37;;
14094;SDS011;18096;48.142;16.290;2023-08-17T14:11:16;3.83;;;3.53;;
14094;SDS011;18096;48.142;16.290;2023-08-17T14:13:41;7.30;;;4.47;;
14094;SDS011;18096;48.142;16.290;2023-08-17T14:16:07;4.67;;;3.80;;
14094;SDS011;18096;48.142;16.290;2023-08-17T14:18:33;7.67;;;3.50;;
14094;SDS011;18096;48.142;16.290;2023-08-17T14:20:58;3.70;;;3.40;;
14094;SDS011;18096;48.142;16.290;2023-08-17T14:23:24;3.50;;;3.30;;
14094;SDS011;18096;48.142;16.290;2023-08-17T14:25:49;6.07;;;4.17;;
14094;SDS011;18096;48.142;16.290;2023-08-17T14:28:17;7.70;;;3.80;;
14094;SDS011;18096;48.142;16.290;2023-08-17T14:30:43;5.38;;;3.33;;
14094;SDS011;18096;48.142;16.290;2023-08-17T14:33:08;4.40;;;3.72;;
14094;SDS011;18096;48.142;16.290;2023-08-17T14:35:34;4.20;;;3.40;;
14094;SDS011;18096;48.142;16.290;2023-08-17T14:37:59;6.03;;;4.40;;